Terminal Aerodrome Forecast
Issued by NWS Shreveport, LA

Home | Current Version | Previous Version | Text Only | Print | Product List | Glossary On
Versions: 1 2 3 4 5 6 7 8 9 10 11 12 13 14 15 16 17 18
105
FTUS44 KSHV 220302 AAB
TAFGGG
TAF AMD
KGGG 220302Z 2203/2224 VRB05KT P6SM FEW006 BKN030
     FM220500 VRB05KT 2SM -RA BR VCTS OVC006CB
     FM220700 30007KT 3SM BR VCSH OVC010
     FM221000 32011KT P6SM OVC010
     FM221500 32012G18KT P6SM OVC015
     FM221900 30015G24KT P6SM BKN035=

USA.gov is the U.S. government's official web portal to all federal, state and local government web resources and services.